Terminal Aerodrome Forecast
Issued by NWS Cleveland, OH

Home | Current Version | Previous Version | Graphics & Text | Print | Product List | Glossary On
Versions: 1 2 3 4 5 6 7 8 9 10 11 12 13 14 15
000
FTUS41 KCLE 190900 AAA
TAFTOL
TAF AMD
KTOL 190949Z 1910/2006 05010KT P6SM SCT035
     FM191400 08010G20KT P6SM SCT250
     FM192300 08004KT P6SM SCT250=

USA.gov is the U.S. government's official web portal to all federal, state and local government web resources and services.